sensor_id;sensor_type;location;lat;lon;timestamp;pressure;altitude;pressure_sealevel;temperature;humidity
30682;BME280;17439;48.092;11.842;2024-01-06T00:01:04;94157.19;;;8.66;73.52
30682;BME280;17439;48.092;11.842;2024-01-06T00:03:31;94157.19;;;8.66;73.36
30682;BME280;17439;48.092;11.842;2024-01-06T00:05:58;94156.41;;;8.65;73.62
30682;BME280;17439;48.092;11.842;2024-01-06T00:08:24;94157.50;;;8.64;73.47
30682;BME280;17439;48.092;11.842;2024-01-06T00:10:51;94155.91;;;8.63;73.67
30682;BME280;17439;48.092;11.842;2024-01-06T00:13:18;94159.09;;;8.65;73.52
30682;BME280;17439;48.092;11.842;2024-01-06T00:15:45;94162.91;;;8.64;73.35
30682;BME280;17439;48.092;11.842;2024-01-06T00:18:11;94152.75;;;8.61;73.43
30682;BME280;17439;48.092;11.842;2024-01-06T00:20:38;94160.09;;;8.61;73.30
30682;BME280;17439;48.092;11.842;2024-01-06T00:23:05;94157.72;;;8.59;73.58
30682;BME280;17439;48.092;11.842;2024-01-06T00:25:32;94153.41;;;8.58;73.51
30682;BME280;17439;48.092;11.842;2024-01-06T00:27:58;94150.72;;;8.58;73.87
30682;BME280;17439;48.092;11.842;2024-01-06T00:30:25;94149.13;;;8.57;73.84
30682;BME280;17439;48.092;11.842;2024-01-06T00:32:52;94152.63;;;8.58;74.11
30682;BME280;17439;48.092;11.842;2024-01-06T00:35:19;94153.41;;;8.58;74.47
30682;BME280;17439;48.092;11.842;2024-01-06T00:37:45;94155.78;;;8.60;74.51
30682;BME280;17439;48.092;11.842;2024-01-06T00:40:12;94148.47;;;8.60;74.46
30682;BME280;17439;48.092;11.842;2024-01-06T00:42:39;94151.66;;;8.62;74.34
30682;BME280;17439;48.092;11.842;2024-01-06T00:45:09;94151.31;;;8.64;74.16
30682;BME280;17439;48.092;11.842;2024-01-06T00:47:35;94156.41;;;8.65;74.36
30682;BME280;17439;48.092;11.842;2024-01-06T00:50:02;94157.63;;;8.68;74.32
30682;BME280;17439;48.092;11.842;2024-01-06T00:52:29;94143.78;;;8.69;74.15
30682;BME280;17439;48.092;11.842;2024-01-06T00:54:56;94153.50;;;8.70;74.07
30682;BME280;17439;48.092;11.842;2024-01-06T00:57:23;94154.28;;;8.71;73.98
30682;BME280;17439;48.092;11.842;2024-01-06T00:59:50;94152.03;;;8.73;74.00
30682;BME280;17439;48.092;11.842;2024-01-06T01:02:16;94150.13;;;8.74;73.95
30682;BME280;17439;48.092;11.842;2024-01-06T01:04:43;94147.44;;;8.74;73.82
30682;BME280;17439;48.092;11.842;2024-01-06T01:07:10;94142.81;;;8.74;73.71
30682;BME280;17439;48.092;11.842;2024-01-06T01:09:37;94149.00;;;8.75;74.00
30682;BME280;17439;48.092;11.842;2024-01-06T01:12:04;94145.19;;;8.76;74.05
30682;BME280;17439;48.092;11.842;2024-01-06T01:14:30;94155.19;;;8.75;74.00
30682;BME280;17439;48.092;11.842;2024-01-06T01:16:57;94156.00;;;8.76;73.94
30682;BME280;17439;48.092;11.842;2024-01-06T01:19:24;94153.75;;;8.78;74.20
30682;BME280;17439;48.092;11.842;2024-01-06T01:21:51;94158.34;;;8.77;74.17
30682;BME280;17439;48.092;11.842;2024-01-06T01:24:17;94154.53;;;8.78;74.21
30682;BME280;17439;48.092;11.842;2024-01-06T01:26:44;94155.31;;;8.79;74.13
30682;BME280;17439;48.092;11.842;2024-01-06T01:29:11;94157.69;;;8.80;74.40
30682;BME280;17439;48.092;11.842;2024-01-06T01:31:38;94155.78;;;8.81;74.50
30682;BME280;17439;48.092;11.842;2024-01-06T01:34:05;94160.06;;;8.82;74.62
30682;BME280;17439;48.092;11.842;2024-01-06T01:36:32;94161.66;;;8.83;74.35
30682;BME280;17439;48.092;11.842;2024-01-06T01:38:58;94164.81;;;8.85;74.09
30682;BME280;17439;48.092;11.842;2024-01-06T01:41:25;94160.19;;;8.85;73.93
30682;BME280;17439;48.092;11.842;2024-01-06T01:43:52;94155.56;;;8.86;74.00
30682;BME280;17439;48.092;11.842;2024-01-06T01:46:19;94157.94;;;8.87;73.87
30682;BME280;17439;48.092;11.842;2024-01-06T01:48:45;94163.34;;;8.87;73.77
30682;BME280;17439;48.092;11.842;2024-01-06T01:51:12;94166.84;;;8.88;73.67
30682;BME280;17439;48.092;11.842;2024-01-06T01:53:39;94166.06;;;8.87;73.32
30682;BME280;17439;48.092;11.842;2024-01-06T01:56:06;94164.16;;;8.88;73.17
30682;BME280;17439;48.092;11.842;2024-01-06T01:58:32;94162.56;;;8.87;73.02
30682;BME280;17439;48.092;11.842;2024-01-06T02:00:59;94169.88;;;8.86;73.20
30682;BME280;17439;48.092;11.842;2024-01-06T02:03:28;94163.69;;;8.86;72.79
30682;BME280;17439;48.092;11.842;2024-01-06T02:05:56;94171.78;;;8.86;73.26
30682;BME280;17439;48.092;11.842;2024-01-06T02:08:23;94168.31;;;8.85;73.20
30682;BME280;17439;48.092;11.842;2024-01-06T02:10:50;94168.63;;;8.84;73.18
30682;BME280;17439;48.092;11.842;2024-01-06T02:13:17;94171.34;;;8.84;73.40
30682;BME280;17439;48.092;11.842;2024-01-06T02:15:43;94174.81;;;8.84;73.28
30682;BME280;17439;48.092;11.842;2024-01-06T02:18:10;94172.47;;;8.83;73.28
30682;BME280;17439;48.092;11.842;2024-01-06T02:20:37;94173.25;;;8.83;73.36
30682;BME280;17439;48.092;11.842;2024-01-06T02:23:05;94169.78;;;8.83;73.34
30682;BME280;17439;48.092;11.842;2024-01-06T02:25:32;94172.47;;;8.83;73.14
30682;BME280;17439;48.092;11.842;2024-01-06T02:27:58;94170.88;;;8.82;73.06
30682;BME280;17439;48.092;11.842;2024-01-06T02:30:25;94169.78;;;8.83;73.01
30682;BME280;17439;48.092;11.842;2024-01-06T02:32:52;94165.47;;;8.82;73.17
30682;BME280;17439;48.092;11.842;2024-01-06T02:35:21;94170.44;;;8.80;72.14
30682;BME280;17439;48.092;11.842;2024-01-06T02:37:48;94165.03;;;8.80;73.08
30682;BME280;17439;48.092;11.842;2024-01-06T02:40:14;94171.53;;;8.79;72.89
30682;BME280;17439;48.092;11.842;2024-01-06T02:42:41;94167.56;;;8.76;72.98
30682;BME280;17439;48.092;11.842;2024-01-06T02:45:08;94162.50;;;8.75;72.96
30682;BME280;17439;48.092;11.842;2024-01-06T02:47:35;94172.84;;;8.73;73.15
30682;BME280;17439;48.092;11.842;2024-01-06T02:50:02;94170.47;;;8.71;73.04
30682;BME280;17439;48.092;11.842;2024-01-06T02:52:29;94176.22;;;8.69;72.94
30682;BME280;17439;48.092;11.842;2024-01-06T02:54:56;94176.53;;;8.68;72.81
30682;BME280;17439;48.092;11.842;2024-01-06T02:57:22;94172.59;;;8.65;72.68
30682;BME280;17439;48.092;11.842;2024-01-06T02:59:49;94175.63;;;8.64;72.85
30682;BME280;17439;48.092;11.842;2024-01-06T03:02:16;94182.94;;;8.63;72.85
30682;BME280;17439;48.092;11.842;2024-01-06T03:04:43;94182.94;;;8.63;72.87
30682;BME280;17439;48.092;11.842;2024-01-06T03:07:10;94187.88;;;8.61;72.47
30682;BME280;17439;48.092;11.842;2024-01-06T03:09:37;94178.66;;;8.62;72.73
30682;BME280;17439;48.092;11.842;2024-01-06T03:12:04;94174.38;;;8.61;72.28
30682;BME280;17439;48.092;11.842;2024-01-06T03:14:31;94179.00;;;8.61;72.38
30682;BME280;17439;48.092;11.842;2024-01-06T03:16:58;94183.13;;;8.58;72.17
30682;BME280;17439;48.092;11.842;2024-01-06T03:19:25;94184.72;;;8.59;72.22
30682;BME280;17439;48.092;11.842;2024-01-06T03:21:51;94186.94;;;8.57;72.24
30682;BME280;17439;48.092;11.842;2024-01-06T03:24:19;94191.56;;;8.57;72.13
30682;BME280;17439;48.092;11.842;2024-01-06T03:26:46;94192.69;;;8.56;72.07
30682;BME280;17439;48.092;11.842;2024-01-06T03:29:12;94196.19;;;8.56;71.92
30682;BME280;17439;48.092;11.842;2024-01-06T03:31:46;94198.41;;;8.54;70.40
30682;BME280;17439;48.092;11.842;2024-01-06T03:34:13;94191.44;;;8.53;71.63
30682;BME280;17439;48.092;11.842;2024-01-06T03:36:40;94197.16;;;8.51;71.50
30682;BME280;17439;48.092;11.842;2024-01-06T03:39:07;94191.63;;;8.48;71.46
30682;BME280;17439;48.092;11.842;2024-01-06T03:41:34;94191.97;;;8.46;71.42
30682;BME280;17439;48.092;11.842;2024-01-06T03:44:01;94192.28;;;8.45;71.63
30682;BME280;17439;48.092;11.842;2024-01-06T03:46:27;94200.72;;;8.43;71.69
30682;BME280;17439;48.092;11.842;2024-01-06T03:48:54;94191.31;;;8.41;71.64
30682;BME280;17439;48.092;11.842;2024-01-06T03:51:21;94194.34;;;8.39;71.71
30682;BME280;17439;48.092;11.842;2024-01-06T03:53:48;94194.69;;;8.38;71.77
30682;BME280;17439;48.092;11.842;2024-01-06T03:56:15;94198.97;;;8.39;71.77
30682;BME280;17439;48.092;11.842;2024-01-06T03:58:41;94194.69;;;8.38;71.88
30682;BME280;17439;48.092;11.842;2024-01-06T04:01:08;94201.66;;;8.39;71.90
30682;BME280;17439;48.092;11.842;2024-01-06T04:03:35;94203.88;;;8.36;71.62
30682;BME280;17439;48.092;11.842;2024-01-06T04:06:02;94204.22;;;8.35;71.57
30682;BME280;17439;48.092;11.842;2024-01-06T04:08:29;94201.84;;;8.33;71.60
30682;BME280;17439;48.092;11.842;2024-01-06T04:10:56;94204.88;;;8.32;71.46
30682;BME280;17439;48.092;11.842;2024-01-06T04:13:22;94203.63;;;8.29;71.48
30682;BME280;17439;48.092;11.842;2024-01-06T04:15:49;94207.44;;;8.28;71.38
30682;BME280;17439;48.092;11.842;2024-01-06T04:18:16;94212.38;;;8.26;71.35
30682;BME280;17439;48.092;11.842;2024-01-06T04:20:43;94208.06;;;8.25;71.26
30682;BME280;17439;48.092;11.842;2024-01-06T04:23:10;94220.00;;;8.24;71.24
30682;BME280;17439;48.092;11.842;2024-01-06T04:25:36;94217.63;;;8.23;71.39
30682;BME280;17439;48.092;11.842;2024-01-06T04:28:03;94217.16;;;8.21;71.12
30682;BME280;17439;48.092;11.842;2024-01-06T04:30:30;94220.19;;;8.19;71.16
30682;BME280;17439;48.092;11.842;2024-01-06T04:32:57;94221.31;;;8.18;71.07
30682;BME280;17439;48.092;11.842;2024-01-06T04:35:25;94224.66;;;8.15;70.89
30682;BME280;17439;48.092;11.842;2024-01-06T04:37:52;94234.19;;;8.12;70.97
30682;BME280;17439;48.092;11.842;2024-01-06T04:40:18;94236.44;;;8.10;70.78
30682;BME280;17439;48.092;11.842;2024-01-06T04:42:45;94235.16;;;8.08;70.66
30682;BME280;17439;48.092;11.842;2024-01-06T04:45:12;94234.25;;;8.04;70.69
30682;BME280;17439;48.092;11.842;2024-01-06T04:47:39;94237.59;;;8.01;70.50
30682;BME280;17439;48.092;11.842;2024-01-06T04:50:06;94238.22;;;7.97;70.11
30682;BME280;17439;48.092;11.842;2024-01-06T04:52:32;94235.22;;;7.90;70.19
30682;BME280;17439;48.092;11.842;2024-01-06T04:54:59;94235.88;;;7.87;70.35
30682;BME280;17439;48.092;11.842;2024-01-06T04:57:26;94235.72;;;7.84;70.27
30682;BME280;17439;48.092;11.842;2024-01-06T04:59:52;94243.22;;;7.78;70.39
30682;BME280;17439;48.092;11.842;2024-01-06T05:02:19;94252.28;;;7.73;70.45
30682;BME280;17439;48.092;11.842;2024-01-06T05:04:46;94251.78;;;7.71;70.46
30682;BME280;17439;48.092;11.842;2024-01-06T05:07:13;94253.88;;;7.66;70.57
30682;BME280;17439;48.092;11.842;2024-01-06T05:09:39;94258.81;;;7.63;70.62
30682;BME280;17439;48.092;11.842;2024-01-06T05:12:07;94257.84;;;7.59;70.51
30682;BME280;17439;48.092;11.842;2024-01-06T05:14:33;94258.50;;;7.56;70.63
30682;BME280;17439;48.092;11.842;2024-01-06T05:17:00;94261.50;;;7.55;70.66
30682;BME280;17439;48.092;11.842;2024-01-06T05:19:27;94264.06;;;7.51;70.52
30682;BME280;17439;48.092;11.842;2024-01-06T05:21:55;94275.50;;;7.48;70.50
30682;BME280;17439;48.092;11.842;2024-01-06T05:24:22;94270.28;;;7.43;70.58
30682;BME280;17439;48.092;11.842;2024-01-06T05:26:49;94269.31;;;7.39;70.65
30682;BME280;17439;48.092;11.842;2024-01-06T05:29:15;94278.03;;;7.36;70.86
30682;BME280;17439;48.092;11.842;2024-01-06T05:31:42;94282.66;;;7.35;70.80
30682;BME280;17439;48.092;11.842;2024-01-06T05:34:09;94274.38;;;7.32;71.00
30682;BME280;17439;48.092;11.842;2024-01-06T05:36:36;94282.00;;;7.30;71.24
30682;BME280;17439;48.092;11.842;2024-01-06T05:39:03;94285.00;;;7.28;71.30
30682;BME280;17439;48.092;11.842;2024-01-06T05:41:29;94288.84;;;7.27;71.38
30682;BME280;17439;48.092;11.842;2024-01-06T05:43:56;94286.47;;;7.25;71.47
30682;BME280;17439;48.092;11.842;2024-01-06T05:46:25;94297.25;;;7.25;71.15
30682;BME280;17439;48.092;11.842;2024-01-06T05:48:52;94284.06;;;7.24;71.66
30682;BME280;17439;48.092;11.842;2024-01-06T05:51:19;94291.03;;;7.25;71.81
30682;BME280;17439;48.092;11.842;2024-01-06T05:53:46;94296.75;;;7.23;71.68
30682;BME280;17439;48.092;11.842;2024-01-06T05:56:25;94297.06;;;7.22;70.54
30682;BME280;17439;48.092;11.842;2024-01-06T05:58:53;94303.59;;;7.21;71.24
30682;BME280;17439;48.092;11.842;2024-01-06T06:01:20;94318.94;;;7.20;70.95
30682;BME280;17439;48.092;11.842;2024-01-06T06:03:50;94323.41;;;7.16;71.08
30682;BME280;17439;48.092;11.842;2024-01-06T06:06:17;94317.50;;;7.14;71.12
30682;BME280;17439;48.092;11.842;2024-01-06T06:08:44;94323.56;;;7.11;70.92
30682;BME280;17439;48.092;11.842;2024-01-06T06:11:11;94329.09;;;7.06;70.80
30682;BME280;17439;48.092;11.842;2024-01-06T06:13:39;94339.06;;;7.05;70.93
30682;BME280;17439;48.092;11.842;2024-01-06T06:16:07;94352.41;;;7.02;70.82
30682;BME280;17439;48.092;11.842;2024-01-06T06:18:33;94344.44;;;6.97;71.05
30682;BME280;17439;48.092;11.842;2024-01-06T06:21:01;94354.75;;;6.95;70.94
30682;BME280;17439;48.092;11.842;2024-01-06T06:23:27;94365.69;;;6.89;71.02
30682;BME280;17439;48.092;11.842;2024-01-06T06:25:54;94363.28;;;6.88;71.32
30682;BME280;17439;48.092;11.842;2024-01-06T06:28:21;94363.91;;;6.85;71.55
30682;BME280;17439;48.092;11.842;2024-01-06T06:30:48;94365.34;;;6.82;71.50
30682;BME280;17439;48.092;11.842;2024-01-06T06:33:14;94367.56;;;6.80;71.66
30682;BME280;17439;48.092;11.842;2024-01-06T06:35:41;94378.31;;;6.80;71.79
30682;BME280;17439;48.092;11.842;2024-01-06T06:38:08;94369.78;;;6.78;71.78
30682;BME280;17439;48.092;11.842;2024-01-06T06:40:35;94372.78;;;6.77;72.15
30682;BME280;17439;48.092;11.842;2024-01-06T06:43:02;94381.66;;;6.77;72.19
30682;BME280;17439;48.092;11.842;2024-01-06T06:45:28;94381.94;;;6.76;72.20
30682;BME280;17439;48.092;11.842;2024-01-06T06:47:55;94382.78;;;6.76;72.51
30682;BME280;17439;48.092;11.842;2024-01-06T06:50:22;94375.47;;;6.77;72.53
30682;BME280;17439;48.092;11.842;2024-01-06T06:52:49;94366.28;;;6.78;72.57
30682;BME280;17439;48.092;11.842;2024-01-06T06:55:15;94374.06;;;6.79;73.02
30682;BME280;17439;48.092;11.842;2024-01-06T06:57:42;94382.63;;;6.81;73.00
30682;BME280;17439;48.092;11.842;2024-01-06T07:00:09;94375.00;;;6.83;72.96
30682;BME280;17439;48.092;11.842;2024-01-06T07:02:36;94379.31;;;6.84;72.89
30682;BME280;17439;48.092;11.842;2024-01-06T07:05:03;94380.56;;;6.87;72.92
30682;BME280;17439;48.092;11.842;2024-01-06T07:07:30;94385.94;;;6.87;72.75
30682;BME280;17439;48.092;11.842;2024-01-06T07:09:57;94387.22;;;6.89;72.60
30682;BME280;17439;48.092;11.842;2024-01-06T07:12:23;94386.59;;;6.93;72.59
30682;BME280;17439;48.092;11.842;2024-01-06T07:14:50;94389.31;;;7.01;70.91
30682;BME280;17439;48.092;11.842;2024-01-06T07:17:17;94390.13;;;7.02;70.51
30682;BME280;17439;48.092;11.842;2024-01-06T07:19:44;94393.91;;;7.01;70.23
30682;BME280;17439;48.092;11.842;2024-01-06T07:22:11;94391.53;;;6.99;69.81
30682;BME280;17439;48.092;11.842;2024-01-06T07:24:37;94397.06;;;6.94;70.13
30682;BME280;17439;48.092;11.842;2024-01-06T07:27:07;94407.69;;;6.90;70.40
30682;BME280;17439;48.092;11.842;2024-01-06T07:29:34;94404.03;;;6.86;70.67
30682;BME280;17439;48.092;11.842;2024-01-06T07:32:01;94405.13;;;6.85;70.76
30682;BME280;17439;48.092;11.842;2024-01-06T07:34:27;94405.94;;;6.86;70.79
30682;BME280;17439;48.092;11.842;2024-01-06T07:36:54;94413.81;;;6.82;70.80
30682;BME280;17439;48.092;11.842;2024-01-06T07:39:21;94416.03;;;6.80;71.13
30682;BME280;17439;48.092;11.842;2024-01-06T07:41:48;94416.19;;;6.84;71.14
30682;BME280;17439;48.092;11.842;2024-01-06T07:44:15;94412.72;;;6.83;70.96
30682;BME280;17439;48.092;11.842;2024-01-06T07:46:42;94424.59;;;6.82;70.99
30682;BME280;17439;48.092;11.842;2024-01-06T07:49:09;94424.13;;;6.80;71.21
30682;BME280;17439;48.092;11.842;2024-01-06T07:51:36;94430.63;;;6.79;71.16
30682;BME280;17439;48.092;11.842;2024-01-06T07:54:02;94430.63;;;6.79;71.48
30682;BME280;17439;48.092;11.842;2024-01-06T07:56:29;94445.97;;;6.79;71.32
30682;BME280;17439;48.092;11.842;2024-01-06T07:58:56;94447.59;;;6.80;71.44
30682;BME280;17439;48.092;11.842;2024-01-06T08:01:23;94444.91;;;6.80;71.40
30682;BME280;17439;48.092;11.842;2024-01-06T08:03:50;94443.59;;;6.77;71.52
30682;BME280;17439;48.092;11.842;2024-01-06T08:06:18;94451.22;;;6.75;71.65
30682;BME280;17439;48.092;11.842;2024-01-06T08:08:45;94448.38;;;6.80;71.48
30682;BME280;17439;48.092;11.842;2024-01-06T08:11:12;94452.97;;;6.80;70.97
30682;BME280;17439;48.092;11.842;2024-01-06T08:13:38;94443.91;;;6.76;71.08
30682;BME280;17439;48.092;11.842;2024-01-06T08:16:05;94453.28;;;6.78;71.08
30682;BME280;17439;48.092;11.842;2024-01-06T08:18:32;94457.06;;;6.77;71.26
30682;BME280;17439;48.092;11.842;2024-01-06T08:20:59;94453.59;;;6.77;71.41
30682;BME280;17439;48.092;11.842;2024-01-06T08:23:26;94457.06;;;6.77;71.31
30682;BME280;17439;48.092;11.842;2024-01-06T08:25:53;94456.59;;;6.75;71.42
30682;BME280;17439;48.092;11.842;2024-01-06T08:28:19;94462.78;;;6.76;71.70
30682;BME280;17439;48.092;11.842;2024-01-06T08:30:46;94458.81;;;6.73;71.72
30682;BME280;17439;48.092;11.842;2024-01-06T08:33:13;94462.28;;;6.74;71.80
30682;BME280;17439;48.092;11.842;2024-01-06T08:35:40;94466.91;;;6.73;72.07
30682;BME280;17439;48.092;11.842;2024-01-06T08:38:07;94469.59;;;6.73;71.96
30682;BME280;17439;48.092;11.842;2024-01-06T08:40:35;94465.78;;;6.74;72.31
30682;BME280;17439;48.092;11.842;2024-01-06T08:43:02;94460.38;;;6.74;72.49
30682;BME280;17439;48.092;11.842;2024-01-06T08:45:29;94464.69;;;6.75;72.79
30682;BME280;17439;48.092;11.842;2024-01-06T08:47:56;94465.16;;;6.77;72.77
30682;BME280;17439;48.092;11.842;2024-01-06T08:50:23;94468.34;;;6.79;72.58
30682;BME280;17439;48.092;11.842;2024-01-06T08:52:50;94475.78;;;6.82;72.36
30682;BME280;17439;48.092;11.842;2024-01-06T08:55:16;94469.13;;;6.80;72.20
30682;BME280;17439;48.092;11.842;2024-01-06T08:57:43;94481.47;;;6.81;72.41
30682;BME280;17439;48.092;11.842;2024-01-06T09:00:10;94482.31;;;6.81;72.47
30682;BME280;17439;48.092;11.842;2024-01-06T09:02:37;94486.09;;;6.80;72.33
30682;BME280;17439;48.092;11.842;2024-01-06T09:05:04;94487.69;;;6.81;72.48
30682;BME280;17439;48.092;11.842;2024-01-06T09:07:31;94486.88;;;6.81;72.54
30682;BME280;17439;48.092;11.842;2024-01-06T09:09:58;94489.25;;;6.82;72.61
30682;BME280;17439;48.092;11.842;2024-01-06T09:12:25;94485.94;;;6.85;71.91
30682;BME280;17439;48.092;11.842;2024-01-06T09:14:51;94487.84;;;6.85;71.85
30682;BME280;17439;48.092;11.842;2024-01-06T09:17:18;94488.16;;;6.83;71.95
30682;BME280;17439;48.092;11.842;2024-01-06T09:19:45;94490.84;;;6.83;72.19
30682;BME280;17439;48.092;11.842;2024-01-06T09:22:12;94494.66;;;6.82;72.26
30682;BME280;17439;48.092;11.842;2024-01-06T09:24:38;94504.31;;;6.83;72.18
30682;BME280;17439;48.092;11.842;2024-01-06T09:27:05;94492.75;;;6.83;72.00
30682;BME280;17439;48.092;11.842;2024-01-06T09:29:32;94500.03;;;6.82;72.05
30682;BME280;17439;48.092;11.842;2024-01-06T09:31:59;94500.03;;;6.82;71.99
30682;BME280;17439;48.092;11.842;2024-01-06T09:34:25;94495.78;;;6.81;72.06
30682;BME280;17439;48.092;11.842;2024-01-06T09:36:52;94495.78;;;6.81;71.84
30682;BME280;17439;48.092;11.842;2024-01-06T09:39:19;94501.16;;;6.81;72.17
30682;BME280;17439;48.092;11.842;2024-01-06T09:41:46;94509.25;;;6.81;71.95
30682;BME280;17439;48.092;11.842;2024-01-06T09:44:13;94508.13;;;6.82;72.04
30682;BME280;17439;48.092;11.842;2024-01-06T09:46:42;94502.25;;;6.80;71.88
30682;BME280;17439;48.092;11.842;2024-01-06T09:49:09;94504.47;;;6.78;71.61
30682;BME280;17439;48.092;11.842;2024-01-06T09:51:36;94512.06;;;6.76;71.62
30682;BME280;17439;48.092;11.842;2024-01-06T09:54:08;94516.94;;;6.74;71.08
30682;BME280;17439;48.092;11.842;2024-01-06T09:56:36;94512.69;;;6.73;71.76
30682;BME280;17439;48.092;11.842;2024-01-06T09:59:02;94516.78;;;6.70;71.77
30682;BME280;17439;48.092;11.842;2024-01-06T10:01:29;94511.69;;;6.69;71.90
30682;BME280;17439;48.092;11.842;2024-01-06T10:03:56;94510.09;;;6.68;72.06
30682;BME280;17439;48.092;11.842;2024-01-06T10:06:23;94509.31;;;6.67;72.13
30682;BME280;17439;48.092;11.842;2024-01-06T10:08:51;94507.41;;;6.68;72.26
30682;BME280;17439;48.092;11.842;2024-01-06T10:11:19;94510.09;;;6.68;72.38
30682;BME280;17439;48.092;11.842;2024-01-06T10:13:48;94515.50;;;6.68;71.98
30682;BME280;17439;48.092;11.842;2024-01-06T10:16:15;94507.91;;;6.70;72.32
30682;BME280;17439;48.092;11.842;2024-01-06T10:18:43;94514.09;;;6.70;72.13
30682;BME280;17439;48.092;11.842;2024-01-06T10:21:12;94504.09;;;6.71;72.35
30682;BME280;17439;48.092;11.842;2024-01-06T10:23:39;94501.09;;;6.72;72.50
30682;BME280;17439;48.092;11.842;2024-01-06T10:26:06;94503.78;;;6.72;72.66
30682;BME280;17439;48.092;11.842;2024-01-06T10:28:32;94501.28;;;6.76;72.68
30682;BME280;17439;48.092;11.842;2024-01-06T10:30:59;94495.59;;;6.78;72.48
30682;BME280;17439;48.092;11.842;2024-01-06T10:33:26;94498.00;;;6.79;72.48
30682;BME280;17439;48.092;11.842;2024-01-06T10:35:53;94494.16;;;6.80;72.40
30682;BME280;17439;48.092;11.842;2024-01-06T10:38:20;94497.66;;;6.81;72.51
30682;BME280;17439;48.092;11.842;2024-01-06T10:41:00;94500.34;;;6.81;71.18
30682;BME280;17439;48.092;11.842;2024-01-06T10:43:27;94498.16;;;6.83;72.77
30682;BME280;17439;48.092;11.842;2024-01-06T10:45:56;94505.09;;;6.84;72.36
30682;BME280;17439;48.092;11.842;2024-01-06T10:48:26;94505.09;;;6.84;71.94
30682;BME280;17439;48.092;11.842;2024-01-06T10:50:54;94493.56;;;6.83;72.63
30682;BME280;17439;48.092;11.842;2024-01-06T10:53:21;94492.47;;;6.84;72.86
30682;BME280;17439;48.092;11.842;2024-01-06T10:55:49;94494.84;;;6.86;72.51
30682;BME280;17439;48.092;11.842;2024-01-06T10:58:21;94488.16;;;6.83;72.17
30682;BME280;17439;48.092;11.842;2024-01-06T11:00:48;94489.25;;;6.82;72.49
30682;BME280;17439;48.092;11.842;2024-01-06T11:03:17;94486.56;;;6.82;72.26
30682;BME280;17439;48.092;11.842;2024-01-06T11:05:44;94478.78;;;6.81;72.18
30682;BME280;17439;48.092;11.842;2024-01-06T11:08:12;94488.31;;;6.78;72.30
30682;BME280;17439;48.092;11.842;2024-01-06T11:10:39;94489.09;;;6.79;72.02
30682;BME280;17439;48.092;11.842;2024-01-06T11:13:14;94494.31;;;6.75;70.03
30682;BME280;17439;48.092;11.842;2024-01-06T11:15:47;94490.00;;;6.74;70.96
30682;BME280;17439;48.092;11.842;2024-01-06T11:18:38;94487.94;;;6.71;70.78
30682;BME280;17439;48.092;11.842;2024-01-06T11:23:43;94487.78;;;6.67;72.06
30682;BME280;17439;48.092;11.842;2024-01-06T11:26:10;94487.78;;;6.67;71.95
30682;BME280;17439;48.092;11.842;2024-01-06T11:28:46;94480.63;;;6.63;70.84
30682;BME280;17439;48.092;11.842;2024-01-06T11:31:13;94479.03;;;6.62;71.71
30682;BME280;17439;48.092;11.842;2024-01-06T11:33:44;94476.66;;;6.60;71.61
30682;BME280;17439;48.092;11.842;2024-01-06T11:36:11;94478.84;;;6.58;71.88
30682;BME280;17439;48.092;11.842;2024-01-06T11:38:38;94478.06;;;6.58;71.88
30682;BME280;17439;48.092;11.842;2024-01-06T11:41:08;94472.97;;;6.56;71.61
30682;BME280;17439;48.092;11.842;2024-01-06T11:43:37;94473.28;;;6.54;71.82
30682;BME280;17439;48.092;11.842;2024-01-06T11:46:07;94470.28;;;6.56;71.77
30682;BME280;17439;48.092;11.842;2024-01-06T11:48:35;94469.50;;;6.56;72.31
30682;BME280;17439;48.092;11.842;2024-01-06T11:51:02;94464.44;;;6.54;72.60
30682;BME280;17439;48.092;11.842;2024-01-06T11:53:30;94458.22;;;6.53;72.41
30682;BME280;17439;48.092;11.842;2024-01-06T11:55:56;94466.00;;;6.55;72.71
30682;BME280;17439;48.092;11.842;2024-01-06T11:58:23;94460.31;;;6.57;72.78
30682;BME280;17439;48.092;11.842;2024-01-06T12:00:56;94462.38;;;6.60;71.65
30682;BME280;17439;48.092;11.842;2024-01-06T12:03:22;94454.31;;;6.60;72.88
30682;BME280;17439;48.092;11.842;2024-01-06T12:06:00;94459.69;;;6.60;70.91
30682;BME280;17439;48.092;11.842;2024-01-06T12:08:27;94452.91;;;6.62;72.78
30682;BME280;17439;48.092;11.842;2024-01-06T12:11:02;94457.50;;;6.62;71.15
30682;BME280;17439;48.092;11.842;2024-01-06T12:13:29;94456.06;;;6.64;72.48
30682;BME280;17439;48.092;11.842;2024-01-06T12:15:56;94454.47;;;6.63;72.04
30682;BME280;17439;48.092;11.842;2024-01-06T12:18:22;94446.38;;;6.63;71.74
30682;BME280;17439;48.092;11.842;2024-01-06T12:20:50;94442.91;;;6.63;71.82
30682;BME280;17439;48.092;11.842;2024-01-06T12:23:24;94436.56;;;6.59;70.30
30682;BME280;17439;48.092;11.842;2024-01-06T12:25:51;94449.53;;;6.57;71.79
30682;BME280;17439;48.092;11.842;2024-01-06T12:28:18;94443.34;;;6.56;72.12
30682;BME280;17439;48.092;11.842;2024-01-06T12:30:45;94437.50;;;6.54;72.09
30682;BME280;17439;48.092;11.842;2024-01-06T12:33:12;94438.28;;;6.54;72.33
30682;BME280;17439;48.092;11.842;2024-01-06T12:35:38;94447.44;;;6.53;72.39
30682;BME280;17439;48.092;11.842;2024-01-06T12:38:05;94441.59;;;6.51;72.28
30682;BME280;17439;48.092;11.842;2024-01-06T12:40:35;94439.19;;;6.50;71.95
30682;BME280;17439;48.092;11.842;2024-01-06T12:43:03;94442.22;;;6.48;72.31
30682;BME280;17439;48.092;11.842;2024-01-06T12:45:30;94450.41;;;6.43;71.29
30682;BME280;17439;48.092;11.842;2024-01-06T12:47:57;94444.72;;;6.45;72.00
30682;BME280;17439;48.092;11.842;2024-01-06T12:50:24;94449.63;;;6.43;71.64
30682;BME280;17439;48.092;11.842;2024-01-06T12:52:50;94453.72;;;6.40;71.19
30682;BME280;17439;48.092;11.842;2024-01-06T12:55:17;94453.13;;;6.43;70.74
30682;BME280;17439;48.092;11.842;2024-01-06T12:57:44;94452.03;;;6.44;69.84
30682;BME280;17439;48.092;11.842;2024-01-06T13:00:11;94451.03;;;6.40;69.91
30682;BME280;17439;48.092;11.842;2024-01-06T13:02:38;94454.81;;;6.39;69.64